This is the latest recevied weather packets stored in our database for station/object KC5AV. If no packets are shown the sender has not sent any weather packets the latest 10 day(s).
| Time | Temp. | Humidity | Pressure | Rain* | Wind** | Luminosity | Snow |
|---|---|---|---|---|---|---|---|
| 1777659989 | 12.78° C | 96% | 1017.2 hPa | 0.51 mm | - | 110 W/m² | - |
| 1777659686 | 12.78° C | 96% | 1017.2 hPa | 0.51 mm | - | 110 W/m² | - |
| 1777659383 | 12.78° C | 95% | 1017.1 hPa | 0.51 mm | - | 106 W/m² | - |
| 1777659080 | 12.78° C | 95% | 1016.8 hPa | 0.51 mm | - | 109 W/m² | - |
| 1777658778 | 12.78° C | 95% | 1016.8 hPa | 0.51 mm | - | 111 W/m² | - |
| 1777658474 | 12.78° C | 95% | 1016.8 hPa | 0.51 mm | - | 115 W/m² | - |
| 1777656988 | 12.78° C | 95% | 1018 hPa | 0 mm | - | 130 W/m² | - |
| 1777656685 | 12.78° C | 96% | 1017.9 hPa | 0.51 mm | - | 127 W/m² | - |
| 1777656381 | 12.78° C | 97% | 1018 hPa | 0.51 mm | - | 113 W/m² | - |
| 1777656076 | 12.78° C | 97% | 1017.7 hPa | 0 mm | - | 138 W/m² | - |
| 1777655772 | 12.78° C | 97% | 1017.9 hPa | 0.51 mm | - | 136 W/m² | - |
| 1777655470 | 12.78° C | 97% | 1018.1 hPa | 0 mm | - | 129 W/m² | - |
| 1777655167 | 12.78° C | 97% | 1018.1 hPa | 0 mm | - | 129 W/m² | - |
| 1777653600 | 12.78° C | 98% | 1018.6 hPa | 1.27 mm | - | 59 W/m² | - |
| 1777652993 | 12.78° C | 98% | 1018.6 hPa | 1.27 mm | - | 69 W/m² | - |
| 1777652689 | 12.78° C | 98% | 1018.8 hPa | 1.27 mm | - | 65 W/m² | - |
| 1777652083 | 12.78° C | 98% | 1019 hPa | 1.27 mm | - | 63 W/m² | - |
| 1777651476 | 12.78° C | 98% | 1019 hPa | 2.29 mm | - | 52 W/m² | - |
| 1777651174 | 12.22° C | 98% | 1018.8 hPa | 2.29 mm | - | 56 W/m² | - |
| 1777650871 | 12.22° C | 98% | 1018.9 hPa | 3.05 mm | - | 50 W/m² | - |
| 1777650265 | 12.22° C | 98% | 1019.1 hPa | 2.29 mm | - | 51 W/m² | - |
| 1777649962 | 12.22° C | 98% | 1018.9 hPa | 1.78 mm | - | 46 W/m² | - |
| 1777649660 | 12.22° C | 98% | 1018.8 hPa | 2.29 mm | - | 39 W/m² | - |
| 1777649355 | 12.22° C | 98% | 1018.7 hPa | 1.78 mm | - | 42 W/m² | - |
| 1777649052 | 12.22° C | 98% | 1018.7 hPa | 1.78 mm | - | 44 W/m² | - |
* Rain latest hour (hover to see other rain measurements)
** Current wind speed in m/s (hover to see current wind gust speed)